sensor_id;sensor_type;location;lat;lon;timestamp;pressure;altitude;pressure_sealevel;temperature;humidity
28456;BME280;15682;56.742;38.866;2023-12-07T00:01:44;101520.0;;;-11.4;93.1
28456;BME280;15682;56.742;38.866;2023-12-07T00:03:44;101520.0;;;-11.4;93.1
28456;BME280;15682;56.742;38.866;2023-12-07T00:05:43;101520.0;;;-11.4;93.1
28456;BME280;15682;56.742;38.866;2023-12-07T00:07:44;101520.0;;;-11.4;93.8
28456;BME280;15682;56.742;38.866;2023-12-07T00:09:43;101520.0;;;-11.4;93.8
28456;BME280;15682;56.742;38.866;2023-12-07T00:11:43;101520.0;;;-11.4;93.8
28456;BME280;15682;56.742;38.866;2023-12-07T00:13:42;101520.0;;;-11.3;94.7
28456;BME280;15682;56.742;38.866;2023-12-07T00:15:42;101520.0;;;-11.1;94.7
28456;BME280;15682;56.742;38.866;2023-12-07T00:17:42;101520.0;;;-11.1;93.6
28456;BME280;15682;56.742;38.866;2023-12-07T00:19:42;101520.0;;;-11.2;92.6
28456;BME280;15682;56.742;38.866;2023-12-07T00:21:41;101520.0;;;-11.4;92.6
28456;BME280;15682;56.742;38.866;2023-12-07T00:23:41;101520.0;;;-11.4;92.6
28456;BME280;15682;56.742;38.866;2023-12-07T00:25:41;101520.0;;;-11.5;93.6
28456;BME280;15682;56.742;38.866;2023-12-07T00:27:40;101520.0;;;-11.5;94.0
28456;BME280;15682;56.742;38.866;2023-12-07T00:29:40;101520.0;;;-11.4;94.6
28456;BME280;15682;56.742;38.866;2023-12-07T00:31:40;101520.0;;;-11.2;96.2
28456;BME280;15682;56.742;38.866;2023-12-07T00:33:40;101520.0;;;-11.4;94.4
28456;BME280;15682;56.742;38.866;2023-12-07T00:35:39;101520.0;;;-11.4;94.1
28456;BME280;15682;56.742;38.866;2023-12-07T00:37:39;101520.0;;;-11.4;94.6
28456;BME280;15682;56.742;38.866;2023-12-07T00:39:40;101520.0;;;-11.4;94.6
28456;BME280;15682;56.742;38.866;2023-12-07T00:41:38;101520.0;;;-11.4;95.7
28456;BME280;15682;56.742;38.866;2023-12-07T00:43:39;101520.0;;;-11.6;93.6
28456;BME280;15682;56.742;38.866;2023-12-07T00:45:38;101520.0;;;-11.7;94.2
28456;BME280;15682;56.742;38.866;2023-12-07T00:47:38;101520.0;;;-11.5;93.6
28456;BME280;15682;56.742;38.866;2023-12-07T00:49:38;101520.0;;;-11.4;93.6
28456;BME280;15682;56.742;38.866;2023-12-07T00:51:37;101520.0;;;-11.4;93.6
28456;BME280;15682;56.742;38.866;2023-12-07T00:53:37;101520.0;;;-11.4;92.9
28456;BME280;15682;56.742;38.866;2023-12-07T00:55:37;101520.0;;;-11.4;92.9
28456;BME280;15682;56.742;38.866;2023-12-07T00:57:36;101520.0;;;-11.6;92.7
28456;BME280;15682;56.742;38.866;2023-12-07T00:59:36;101520.0;;;-11.8;92.7
28456;BME280;15682;56.742;38.866;2023-12-07T01:01:36;101520.0;;;-11.8;93.8
28456;BME280;15682;56.742;38.866;2023-12-07T01:03:36;101520.0;;;-11.7;93.8
28456;BME280;15682;56.742;38.866;2023-12-07T01:05:35;101520.0;;;-11.7;93.8
28456;BME280;15682;56.742;38.866;2023-12-07T01:07:35;101520.0;;;-11.8;93.6
28456;BME280;15682;56.742;38.866;2023-12-07T01:09:34;101520.0;;;-11.7;93.6
28456;BME280;15682;56.742;38.866;2023-12-07T01:11:34;101520.0;;;-11.7;93.6
28456;BME280;15682;56.742;38.866;2023-12-07T01:13:34;101520.0;;;-11.7;94.5
28456;BME280;15682;56.742;38.866;2023-12-07T01:15:34;101520.0;;;-11.8;93.6
28456;BME280;15682;56.742;38.866;2023-12-07T01:17:33;101520.0;;;-11.9;93.9
28456;BME280;15682;56.742;38.866;2023-12-07T01:19:33;101530.0;;;-11.7;94.3
28456;BME280;15682;56.742;38.866;2023-12-07T01:21:33;101530.0;;;-12.0;94.3
28456;BME280;15682;56.742;38.866;2023-12-07T01:23:32;101530.0;;;-12.0;94.7
28456;BME280;15682;56.742;38.866;2023-12-07T01:25:32;101530.0;;;-12.1;94.7
28456;BME280;15682;56.742;38.866;2023-12-07T01:27:32;101530.0;;;-11.9;94.8
28456;BME280;15682;56.742;38.866;2023-12-07T01:29:32;101530.0;;;-11.8;95.3
28456;BME280;15682;56.742;38.866;2023-12-07T01:31:31;101530.0;;;-11.9;94.2
28456;BME280;15682;56.742;38.866;2023-12-07T01:33:31;101530.0;;;-11.7;95.3
28456;BME280;15682;56.742;38.866;2023-12-07T01:35:31;101530.0;;;-11.9;93.9
28456;BME280;15682;56.742;38.866;2023-12-07T01:37:30;101530.0;;;-11.7;94.2
28456;BME280;15682;56.742;38.866;2023-12-07T01:39:30;101530.0;;;-12.0;94.2
28456;BME280;15682;56.742;38.866;2023-12-07T01:41:30;101530.0;;;-12.0;94.2
28456;BME280;15682;56.742;38.866;2023-12-07T01:43:29;101530.0;;;-12.1;94.2
28456;BME280;15682;56.742;38.866;2023-12-07T01:45:29;101530.0;;;-12.1;94.7
28456;BME280;15682;56.742;38.866;2023-12-07T01:47:29;101530.0;;;-12.1;94.5
28456;BME280;15682;56.742;38.866;2023-12-07T01:49:29;101530.0;;;-11.8;94.5
28456;BME280;15682;56.742;38.866;2023-12-07T01:51:28;101530.0;;;-12.0;94.8
28456;BME280;15682;56.742;38.866;2023-12-07T01:53:28;101530.0;;;-11.9;93.9
28456;BME280;15682;56.742;38.866;2023-12-07T01:55:29;101530.0;;;-12.0;93.4
28456;BME280;15682;56.742;38.866;2023-12-07T01:57:27;101530.0;;;-12.0;93.6
28456;BME280;15682;56.742;38.866;2023-12-07T01:59:27;101530.0;;;-12.0;93.6
28456;BME280;15682;56.742;38.866;2023-12-07T02:01:27;101540.0;;;-11.9;94.5
28456;BME280;15682;56.742;38.866;2023-12-07T02:03:28;101540.0;;;-11.9;93.9
28456;BME280;15682;56.742;38.866;2023-12-07T02:05:26;101540.0;;;-11.7;96.0
28456;BME280;15682;56.742;38.866;2023-12-07T02:07:27;101550.0;;;-12.0;93.7
28456;BME280;15682;56.742;38.866;2023-12-07T02:09:25;101550.0;;;-12.0;93.6
28456;BME280;15682;56.742;38.866;2023-12-07T02:11:25;101550.0;;;-12.0;93.6
28456;BME280;15682;56.742;38.866;2023-12-07T02:13:25;101550.0;;;-12.0;94.5
28456;BME280;15682;56.742;38.866;2023-12-07T02:15:25;101570.0;;;-12.0;93.9
28456;BME280;15682;56.742;38.866;2023-12-07T02:17:28;101570.0;;;-11.9;94.0
28456;BME280;15682;56.742;38.866;2023-12-07T02:19:46;101570.0;;;-11.9;94.1
28456;BME280;15682;56.742;38.866;2023-12-07T02:21:32;101570.0;;;-11.9;94.1
28456;BME280;15682;56.742;38.866;2023-12-07T02:23:25;101570.0;;;-11.9;94.1
28456;BME280;15682;56.742;38.866;2023-12-07T02:25:28;101570.0;;;-11.9;94.9
28456;BME280;15682;56.742;38.866;2023-12-07T02:27:34;101570.0;;;-11.9;94.3
28456;BME280;15682;56.742;38.866;2023-12-07T02:29:22;101570.0;;;-11.9;94.1
28456;BME280;15682;56.742;38.866;2023-12-07T02:31:22;101570.0;;;-11.9;93.4
28456;BME280;15682;56.742;38.866;2023-12-07T02:33:22;101570.0;;;-11.9;94.0
28456;BME280;15682;56.742;38.866;2023-12-07T02:35:22;101570.0;;;-12.0;93.4
28456;BME280;15682;56.742;38.866;2023-12-07T02:37:22;101570.0;;;-11.9;93.9
28456;BME280;15682;56.742;38.866;2023-12-07T02:39:22;101570.0;;;-12.2;93.2
28456;BME280;15682;56.742;38.866;2023-12-07T02:41:21;101570.0;;;-12.2;94.4
28456;BME280;15682;56.742;38.866;2023-12-07T02:43:20;101570.0;;;-12.2;94.4
28456;BME280;15682;56.742;38.866;2023-12-07T02:45:20;101580.0;;;-12.0;93.7
28456;BME280;15682;56.742;38.866;2023-12-07T02:47:20;101580.0;;;-12.0;93.9
28456;BME280;15682;56.742;38.866;2023-12-07T02:49:19;101580.0;;;-12.0;93.9
28456;BME280;15682;56.742;38.866;2023-12-07T02:51:20;101580.0;;;-11.9;94.0
28456;BME280;15682;56.742;38.866;2023-12-07T02:53:19;101580.0;;;-12.1;94.0
28456;BME280;15682;56.742;38.866;2023-12-07T02:55:18;101580.0;;;-12.1;94.1
28456;BME280;15682;56.742;38.866;2023-12-07T02:57:18;101580.0;;;-12.1;93.2
28456;BME280;15682;56.742;38.866;2023-12-07T02:59:18;101590.0;;;-12.1;93.2
28456;BME280;15682;56.742;38.866;2023-12-07T03:01:17;101590.0;;;-12.1;92.8
28456;BME280;15682;56.742;38.866;2023-12-07T03:03:17;101590.0;;;-12.3;93.7
28456;BME280;15682;56.742;38.866;2023-12-07T03:05:17;101590.0;;;-12.4;94.0
28456;BME280;15682;56.742;38.866;2023-12-07T03:07:17;101600.0;;;-12.2;93.3
28456;BME280;15682;56.742;38.866;2023-12-07T03:09:16;101600.0;;;-12.4;93.3
28456;BME280;15682;56.742;38.866;2023-12-07T03:11:16;101600.0;;;-12.5;93.3
28456;BME280;15682;56.742;38.866;2023-12-07T03:13:16;101600.0;;;-12.5;94.1
28456;BME280;15682;56.742;38.866;2023-12-07T03:15:15;101600.0;;;-12.4;93.4
28456;BME280;15682;56.742;38.866;2023-12-07T03:17:15;101600.0;;;-12.4;93.6
28456;BME280;15682;56.742;38.866;2023-12-07T03:19:15;101620.0;;;-12.4;94.0
28456;BME280;15682;56.742;38.866;2023-12-07T03:21:14;101620.0;;;-12.4;93.3
28456;BME280;15682;56.742;38.866;2023-12-07T03:23:14;101620.0;;;-12.6;93.3
28456;BME280;15682;56.742;38.866;2023-12-07T03:25:14;101620.0;;;-12.6;93.3
28456;BME280;15682;56.742;38.866;2023-12-07T03:27:14;101620.0;;;-12.6;94.1
28456;BME280;15682;56.742;38.866;2023-12-07T03:29:13;101620.0;;;-12.6;94.6
28456;BME280;15682;56.742;38.866;2023-12-07T03:31:13;101620.0;;;-12.4;94.6
28456;BME280;15682;56.742;38.866;2023-12-07T03:33:13;101620.0;;;-12.4;94.4
28456;BME280;15682;56.742;38.866;2023-12-07T03:35:12;101620.0;;;-12.5;93.8
28456;BME280;15682;56.742;38.866;2023-12-07T03:37:12;101620.0;;;-12.6;93.7
28456;BME280;15682;56.742;38.866;2023-12-07T03:39:13;101620.0;;;-12.3;95.2
28456;BME280;15682;56.742;38.866;2023-12-07T03:41:11;101620.0;;;-12.5;94.4
28456;BME280;15682;56.742;38.866;2023-12-07T03:43:11;101630.0;;;-12.2;94.4
28456;BME280;15682;56.742;38.866;2023-12-07T03:45:11;101630.0;;;-12.2;93.9
28456;BME280;15682;56.742;38.866;2023-12-07T03:47:10;101630.0;;;-12.2;94.2
28456;BME280;15682;56.742;38.866;2023-12-07T03:49:10;101630.0;;;-12.2;95.0
28456;BME280;15682;56.742;38.866;2023-12-07T03:51:13;101630.0;;;-12.2;92.4
28456;BME280;15682;56.742;38.866;2023-12-07T03:53:09;101630.0;;;-12.3;94.5
28456;BME280;15682;56.742;38.866;2023-12-07T03:55:09;101630.0;;;-12.4;94.5
28456;BME280;15682;56.742;38.866;2023-12-07T03:57:09;101630.0;;;-12.4;95.2
28456;BME280;15682;56.742;38.866;2023-12-07T03:59:08;101630.0;;;-12.1;95.2
28456;BME280;15682;56.742;38.866;2023-12-07T04:01:08;101630.0;;;-12.1;94.5
28456;BME280;15682;56.742;38.866;2023-12-07T04:03:08;101640.0;;;-12.1;93.5
28456;BME280;15682;56.742;38.866;2023-12-07T04:05:08;101640.0;;;-12.3;94.5
28456;BME280;15682;56.742;38.866;2023-12-07T04:07:07;101640.0;;;-12.3;94.4
28456;BME280;15682;56.742;38.866;2023-12-07T04:09:07;101640.0;;;-12.3;94.4
28456;BME280;15682;56.742;38.866;2023-12-07T04:11:07;101640.0;;;-12.3;94.4
28456;BME280;15682;56.742;38.866;2023-12-07T04:13:06;101640.0;;;-12.4;94.4
28456;BME280;15682;56.742;38.866;2023-12-07T04:15:07;101640.0;;;-12.3;94.4
28456;BME280;15682;56.742;38.866;2023-12-07T04:17:06;101640.0;;;-12.5;93.7
28456;BME280;15682;56.742;38.866;2023-12-07T04:19:05;101640.0;;;-12.4;94.7
28456;BME280;15682;56.742;38.866;2023-12-07T04:21:05;101640.0;;;-12.4;94.9
28456;BME280;15682;56.742;38.866;2023-12-07T04:23:05;101640.0;;;-12.4;94.9
28456;BME280;15682;56.742;38.866;2023-12-07T04:25:05;101650.0;;;-12.4;94.1
28456;BME280;15682;56.742;38.866;2023-12-07T04:27:04;101650.0;;;-12.4;94.3
28456;BME280;15682;56.742;38.866;2023-12-07T04:29:04;101650.0;;;-12.2;95.1
28456;BME280;15682;56.742;38.866;2023-12-07T04:31:04;101650.0;;;-12.2;94.1
28456;BME280;15682;56.742;38.866;2023-12-07T04:33:03;101650.0;;;-12.2;94.9
28456;BME280;15682;56.742;38.866;2023-12-07T04:35:03;101650.0;;;-12.2;93.9
28456;BME280;15682;56.742;38.866;2023-12-07T04:37:03;101650.0;;;-12.2;94.6
28456;BME280;15682;56.742;38.866;2023-12-07T04:39:02;101650.0;;;-12.2;93.9
28456;BME280;15682;56.742;38.866;2023-12-07T04:41:02;101650.0;;;-12.4;93.9
28456;BME280;15682;56.742;38.866;2023-12-07T04:43:02;101650.0;;;-12.3;94.7
28456;BME280;15682;56.742;38.866;2023-12-07T04:45:01;101650.0;;;-12.4;94.1
28456;BME280;15682;56.742;38.866;2023-12-07T04:47:01;101660.0;;;-12.6;93.7
28456;BME280;15682;56.742;38.866;2023-12-07T04:49:01;101660.0;;;-12.5;94.9
28456;BME280;15682;56.742;38.866;2023-12-07T04:51:00;101660.0;;;-12.3;94.1
28456;BME280;15682;56.742;38.866;2023-12-07T04:53:00;101660.0;;;-12.3;94.1
28456;BME280;15682;56.742;38.866;2023-12-07T04:55:00;101660.0;;;-12.2;93.5
28456;BME280;15682;56.742;38.866;2023-12-07T04:56:59;101660.0;;;-12.4;93.1
28456;BME280;15682;56.742;38.866;2023-12-07T04:58:59;101660.0;;;-12.5;93.1
28456;BME280;15682;56.742;38.866;2023-12-07T05:00:59;101670.0;;;-12.5;95.1
28456;BME280;15682;56.742;38.866;2023-12-07T05:02:58;101670.0;;;-12.5;94.4
28456;BME280;15682;56.742;38.866;2023-12-07T05:04:58;101670.0;;;-12.4;94.4
28456;BME280;15682;56.742;38.866;2023-12-07T05:06:58;101680.0;;;-12.4;94.3
28456;BME280;15682;56.742;38.866;2023-12-07T05:08:58;101680.0;;;-12.1;94.3
28456;BME280;15682;56.742;38.866;2023-12-07T05:10:57;101680.0;;;-12.3;93.7
28456;BME280;15682;56.742;38.866;2023-12-07T05:12:57;101680.0;;;-12.4;93.0
28456;BME280;15682;56.742;38.866;2023-12-07T05:14:57;101680.0;;;-12.5;93.7
28456;BME280;15682;56.742;38.866;2023-12-07T05:16:56;101680.0;;;-12.5;94.0
28456;BME280;15682;56.742;38.866;2023-12-07T05:18:56;101680.0;;;-12.5;94.0
28456;BME280;15682;56.742;38.866;2023-12-07T05:20:56;101680.0;;;-12.5;94.2
28456;BME280;15682;56.742;38.866;2023-12-07T05:22:55;101680.0;;;-12.5;93.2
28456;BME280;15682;56.742;38.866;2023-12-07T05:24:55;101680.0;;;-12.3;94.3
28456;BME280;15682;56.742;38.866;2023-12-07T05:26:55;101680.0;;;-12.3;94.0
28456;BME280;15682;56.742;38.866;2023-12-07T05:28:54;101700.0;;;-12.4;93.3
28456;BME280;15682;56.742;38.866;2023-12-07T05:30:54;101700.0;;;-12.4;93.9
28456;BME280;15682;56.742;38.866;2023-12-07T05:32:54;101700.0;;;-12.4;94.4
28456;BME280;15682;56.742;38.866;2023-12-07T05:34:53;101700.0;;;-12.3;93.7
28456;BME280;15682;56.742;38.866;2023-12-07T05:36:53;101700.0;;;-12.3;93.8
28456;BME280;15682;56.742;38.866;2023-12-07T05:38:53;101700.0;;;-12.2;93.8
28456;BME280;15682;56.742;38.866;2023-12-07T05:40:53;101700.0;;;-12.2;94.2
28456;BME280;15682;56.742;38.866;2023-12-07T05:42:52;101700.0;;;-12.3;94.2
28456;BME280;15682;56.742;38.866;2023-12-07T05:44:52;101710.0;;;-12.4;94.2
28456;BME280;15682;56.742;38.866;2023-12-07T05:46:52;101710.0;;;-12.4;93.5
28456;BME280;15682;56.742;38.866;2023-12-07T05:48:51;101710.0;;;-12.4;94.3
28456;BME280;15682;56.742;38.866;2023-12-07T05:50:51;101710.0;;;-12.2;94.3
28456;BME280;15682;56.742;38.866;2023-12-07T05:52:51;101710.0;;;-12.3;93.7
28456;BME280;15682;56.742;38.866;2023-12-07T05:54:50;101720.0;;;-12.2;94.3
28456;BME280;15682;56.742;38.866;2023-12-07T05:56:50;101720.0;;;-12.1;94.5
28456;BME280;15682;56.742;38.866;2023-12-07T05:58:50;101720.0;;;-12.3;93.3
28456;BME280;15682;56.742;38.866;2023-12-07T06:00:49;101720.0;;;-12.3;93.3
28456;BME280;15682;56.742;38.866;2023-12-07T06:02:49;101720.0;;;-12.3;93.9
28456;BME280;15682;56.742;38.866;2023-12-07T06:04:49;101720.0;;;-12.4;92.7
28456;BME280;15682;56.742;38.866;2023-12-07T06:06:49;101720.0;;;-12.4;93.5
28456;BME280;15682;56.742;38.866;2023-12-07T06:08:48;101720.0;;;-12.2;93.6
28456;BME280;15682;56.742;38.866;2023-12-07T06:10:48;101730.0;;;-12.5;93.6
28456;BME280;15682;56.742;38.866;2023-12-07T06:12:48;101730.0;;;-12.3;94.3
28456;BME280;15682;56.742;38.866;2023-12-07T06:14:47;101730.0;;;-12.1;93.7
28456;BME280;15682;56.742;38.866;2023-12-07T06:16:47;101730.0;;;-12.1;92.8
28456;BME280;15682;56.742;38.866;2023-12-07T06:18:47;101730.0;;;-12.1;93.2
28456;BME280;15682;56.742;38.866;2023-12-07T06:20:46;101730.0;;;-12.0;93.8
28456;BME280;15682;56.742;38.866;2023-12-07T06:22:46;101730.0;;;-12.0;93.8
28456;BME280;15682;56.742;38.866;2023-12-07T06:24:46;101730.0;;;-12.0;93.8
28456;BME280;15682;56.742;38.866;2023-12-07T06:26:45;101730.0;;;-12.0;94.9
28456;BME280;15682;56.742;38.866;2023-12-07T06:28:45;101740.0;;;-12.1;93.2
28456;BME280;15682;56.742;38.866;2023-12-07T06:30:45;101740.0;;;-12.1;94.7
28456;BME280;15682;56.742;38.866;2023-12-07T06:32:45;101740.0;;;-12.1;94.2
28456;BME280;15682;56.742;38.866;2023-12-07T06:34:44;101740.0;;;-12.1;93.6
28456;BME280;15682;56.742;38.866;2023-12-07T06:36:44;101740.0;;;-12.2;94.0
28456;BME280;15682;56.742;38.866;2023-12-07T06:38:44;101740.0;;;-12.3;94.2
28456;BME280;15682;56.742;38.866;2023-12-07T06:40:43;101740.0;;;-11.9;95.8
28456;BME280;15682;56.742;38.866;2023-12-07T06:42:43;101740.0;;;-12.0;94.1
28456;BME280;15682;56.742;38.866;2023-12-07T06:44:43;101740.0;;;-11.8;95.7
28456;BME280;15682;56.742;38.866;2023-12-07T06:46:43;101740.0;;;-12.0;93.8
28456;BME280;15682;56.742;38.866;2023-12-07T06:48:42;101740.0;;;-12.0;93.8
28456;BME280;15682;56.742;38.866;2023-12-07T06:50:42;101740.0;;;-11.9;93.8
28456;BME280;15682;56.742;38.866;2023-12-07T06:52:42;101750.0;;;-11.9;93.8
28456;BME280;15682;56.742;38.866;2023-12-07T06:54:41;101750.0;;;-12.0;93.8
28456;BME280;15682;56.742;38.866;2023-12-07T06:56:41;101750.0;;;-11.6;95.3
28456;BME280;15682;56.742;38.866;2023-12-07T06:58:41;101750.0;;;-11.8;94.1
28456;BME280;15682;56.742;38.866;2023-12-07T07:00:41;101750.0;;;-11.8;94.1
28456;BME280;15682;56.742;38.866;2023-12-07T07:02:40;101750.0;;;-11.6;94.1
28456;BME280;15682;56.742;38.866;2023-12-07T07:04:40;101750.0;;;-11.7;93.4
28456;BME280;15682;56.742;38.866;2023-12-07T07:06:40;101750.0;;;-11.6;93.5
28456;BME280;15682;56.742;38.866;2023-12-07T07:08:39;101750.0;;;-11.3;96.0
28456;BME280;15682;56.742;38.866;2023-12-07T07:10:39;101750.0;;;-11.4;94.4
28456;BME280;15682;56.742;38.866;2023-12-07T07:12:39;101750.0;;;-11.4;93.7
28456;BME280;15682;56.742;38.866;2023-12-07T07:14:38;101750.0;;;-11.4;93.4
28456;BME280;15682;56.742;38.866;2023-12-07T07:16:38;101750.0;;;-11.6;93.3
28456;BME280;15682;56.742;38.866;2023-12-07T07:18:38;101750.0;;;-11.3;94.2
28456;BME280;15682;56.742;38.866;2023-12-07T07:20:38;101770.0;;;-11.2;92.6
28456;BME280;15682;56.742;38.866;2023-12-07T07:22:38;101770.0;;;-11.4;93.2
28456;BME280;15682;56.742;38.866;2023-12-07T07:24:37;101770.0;;;-11.4;93.3
28456;BME280;15682;56.742;38.866;2023-12-07T07:26:37;101770.0;;;-11.4;92.6
28456;BME280;15682;56.742;38.866;2023-12-07T07:28:36;101770.0;;;-11.4;93.1
28456;BME280;15682;56.742;38.866;2023-12-07T07:30:36;101770.0;;;-11.5;92.5
28456;BME280;15682;56.742;38.866;2023-12-07T07:32:36;101770.0;;;-11.3;94.4
28456;BME280;15682;56.742;38.866;2023-12-07T07:34:36;101770.0;;;-11.2;93.2
28456;BME280;15682;56.742;38.866;2023-12-07T07:36:35;101770.0;;;-11.2;92.8
28456;BME280;15682;56.742;38.866;2023-12-07T07:38:35;101770.0;;;-11.2;91.9
28456;BME280;15682;56.742;38.866;2023-12-07T07:40:35;101770.0;;;-11.1;92.0
28456;BME280;15682;56.742;38.866;2023-12-07T07:42:34;101770.0;;;-11.3;92.7
28456;BME280;15682;56.742;38.866;2023-12-07T07:44:34;101770.0;;;-11.3;92.9
28456;BME280;15682;56.742;38.866;2023-12-07T07:46:34;101770.0;;;-11.3;92.1
28456;BME280;15682;56.742;38.866;2023-12-07T07:48:34;101770.0;;;-11.3;91.5
28456;BME280;15682;56.742;38.866;2023-12-07T07:50:33;101770.0;;;-11.3;91.6
28456;BME280;15682;56.742;38.866;2023-12-07T07:52:33;101770.0;;;-11.3;91.6
28456;BME280;15682;56.742;38.866;2023-12-07T07:54:33;101770.0;;;-11.3;91.6
28456;BME280;15682;56.742;38.866;2023-12-07T07:56:32;101770.0;;;-11.3;92.3
28456;BME280;15682;56.742;38.866;2023-12-07T07:58:32;101770.0;;;-11.3;92.3
28456;BME280;15682;56.742;38.866;2023-12-07T08:00:32;101770.0;;;-11.3;92.3
28456;BME280;15682;56.742;38.866;2023-12-07T08:02:31;101770.0;;;-11.3;92.3
28456;BME280;15682;56.742;38.866;2023-12-07T08:04:31;101770.0;;;-11.1;92.9
28456;BME280;15682;56.742;38.866;2023-12-07T08:06:31;101770.0;;;-11.1;92.2
28456;BME280;15682;56.742;38.866;2023-12-07T08:08:31;101770.0;;;-10.9;93.0
28456;BME280;15682;56.742;38.866;2023-12-07T08:10:30;101770.0;;;-10.7;92.2
28456;BME280;15682;56.742;38.866;2023-12-07T08:12:30;101770.0;;;-10.6;92.2
28456;BME280;15682;56.742;38.866;2023-12-07T08:14:30;101770.0;;;-10.9;91.4
28456;BME280;15682;56.742;38.866;2023-12-07T08:16:29;101770.0;;;-10.8;92.5
28456;BME280;15682;56.742;38.866;2023-12-07T08:18:29;101770.0;;;-10.8;92.5
28456;BME280;15682;56.742;38.866;2023-12-07T08:20:29;101770.0;;;-10.7;94.5
28456;BME280;15682;56.742;38.866;2023-12-07T08:22:29;101770.0;;;-10.7;92.4
28456;BME280;15682;56.742;38.866;2023-12-07T08:24:28;101780.0;;;-10.5;93.8
28456;BME280;15682;56.742;38.866;2023-12-07T08:26:28;101780.0;;;-10.4;92.3
28456;BME280;15682;56.742;38.866;2023-12-07T08:28:28;101780.0;;;-10.6;91.2
28456;BME280;15682;56.742;38.866;2023-12-07T08:30:27;101780.0;;;-10.6;92.2
28456;BME280;15682;56.742;38.866;2023-12-07T08:32:27;101780.0;;;-10.3;92.7
28456;BME280;15682;56.742;38.866;2023-12-07T08:34:27;101780.0;;;-10.1;92.7
28456;BME280;15682;56.742;38.866;2023-12-07T08:36:27;101780.0;;;-10.1;91.8
28456;BME280;15682;56.742;38.866;2023-12-07T08:38:26;101780.0;;;-10.3;91.2
28456;BME280;15682;56.742;38.866;2023-12-07T08:40:26;101780.0;;;-10.3;91.2
28456;BME280;15682;56.742;38.866;2023-12-07T08:42:26;101780.0;;;-10.5;91.2
28456;BME280;15682;56.742;38.866;2023-12-07T08:44:25;101780.0;;;-10.5;92.2
28456;BME280;15682;56.742;38.866;2023-12-07T08:46:25;101780.0;;;-10.5;92.8
28456;BME280;15682;56.742;38.866;2023-12-07T08:48:25;101780.0;;;-10.5;92.8
28456;BME280;15682;56.742;38.866;2023-12-07T08:50:25;101780.0;;;-10.3;92.8
28456;BME280;15682;56.742;38.866;2023-12-07T08:52:24;101780.0;;;-10.4;92.2
28456;BME280;15682;56.742;38.866;2023-12-07T08:54:24;101780.0;;;-10.5;93.3
28456;BME280;15682;56.742;38.866;2023-12-07T08:56:24;101780.0;;;-10.3;92.3
28456;BME280;15682;56.742;38.866;2023-12-07T08:58:24;101780.0;;;-10.3;92.3
28456;BME280;15682;56.742;38.866;2023-12-07T09:00:23;101780.0;;;-10.3;90.9
28456;BME280;15682;56.742;38.866;2023-12-07T09:02:23;101780.0;;;-10.3;91.9
28456;BME280;15682;56.742;38.866;2023-12-07T09:04:23;101780.0;;;-10.2;91.1
28456;BME280;15682;56.742;38.866;2023-12-07T09:06:23;101780.0;;;-10.2;91.1
28456;BME280;15682;56.742;38.866;2023-12-07T09:08:22;101780.0;;;-10.2;91.8
28456;BME280;15682;56.742;38.866;2023-12-07T09:10:22;101780.0;;;-10.2;92.3
28456;BME280;15682;56.742;38.866;2023-12-07T09:12:22;101780.0;;;-10.2;92.3
28456;BME280;15682;56.742;38.866;2023-12-07T09:14:22;101780.0;;;-10.4;91.0
28456;BME280;15682;56.742;38.866;2023-12-07T09:16:21;101780.0;;;-10.4;91.0
28456;BME280;15682;56.742;38.866;2023-12-07T09:18:21;101780.0;;;-10.4;91.6
28456;BME280;15682;56.742;38.866;2023-12-07T09:20:21;101780.0;;;-10.4;91.0
28456;BME280;15682;56.742;38.866;2023-12-07T09:22:20;101770.0;;;-10.4;91.0
28456;BME280;15682;56.742;38.866;2023-12-07T09:24:20;101770.0;;;-10.2;91.8
28456;BME280;15682;56.742;38.866;2023-12-07T09:26:20;101770.0;;;-10.2;92.7
28456;BME280;15682;56.742;38.866;2023-12-07T09:28:20;101770.0;;;-10.1;91.6
28456;BME280;15682;56.742;38.866;2023-12-07T09:30:19;101770.0;;;-10.1;91.6
28456;BME280;15682;56.742;38.866;2023-12-07T09:32:19;101770.0;;;-10.1;91.6
28456;BME280;15682;56.742;38.866;2023-12-07T09:34:19;101770.0;;;-9.9;91.4
28456;BME280;15682;56.742;38.866;2023-12-07T09:36:19;101770.0;;;-9.9;91.7
28456;BME280;15682;56.742;38.866;2023-12-07T09:38:18;101770.0;;;-9.9;90.8
28456;BME280;15682;56.742;38.866;2023-12-07T09:40:21;101770.0;;;-9.9;91.3
28456;BME280;15682;56.742;38.866;2023-12-07T09:42:18;101770.0;;;-9.9;91.3
28456;BME280;15682;56.742;38.866;2023-12-07T09:44:18;101770.0;;;-9.8;90.8
28456;BME280;15682;56.742;38.866;2023-12-07T09:46:18;101770.0;;;-9.8;90.3
28456;BME280;15682;56.742;38.866;2023-12-07T09:48:17;101770.0;;;-10.0;89.2
28456;BME280;15682;56.742;38.866;2023-12-07T09:50:18;101770.0;;;-10.2;91.1
28456;BME280;15682;56.742;38.866;2023-12-07T09:52:17;101770.0;;;-9.9;90.0
28456;BME280;15682;56.742;38.866;2023-12-07T09:54:17;101770.0;;;-10.2;90.0
28456;BME280;15682;56.742;38.866;2023-12-07T09:56:16;101770.0;;;-10.0;90.0
28456;BME280;15682;56.742;38.866;2023-12-07T09:58:16;101770.0;;;-10.0;90.3
28456;BME280;15682;56.742;38.866;2023-12-07T10:00:16;101770.0;;;-9.9;91.3
28456;BME280;15682;56.742;38.866;2023-12-07T10:02:15;101770.0;;;-9.9;92.0
28456;BME280;15682;56.742;38.866;2023-12-07T10:04:16;101770.0;;;-10.0;90.9
28456;BME280;15682;56.742;38.866;2023-12-07T10:06:15;101770.0;;;-10.3;89.1
28456;BME280;15682;56.742;38.866;2023-12-07T10:08:25;101770.0;;;-10.4;89.7
28456;BME280;15682;56.742;38.866;2023-12-07T10:10:15;101770.0;;;-10.4;89.9
28456;BME280;15682;56.742;38.866;2023-12-07T10:12:14;101770.0;;;-10.5;89.6
28456;BME280;15682;56.742;38.866;2023-12-07T10:14:14;101770.0;;;-10.4;89.6
28456;BME280;15682;56.742;38.866;2023-12-07T10:16:15;101770.0;;;-10.2;90.4
28456;BME280;15682;56.742;38.866;2023-12-07T10:18:23;101770.0;;;-10.2;89.6
28456;BME280;15682;56.742;38.866;2023-12-07T10:20:15;101770.0;;;-10.2;90.2
28456;BME280;15682;56.742;38.866;2023-12-07T10:22:14;101770.0;;;-10.2;89.5
28456;BME280;15682;56.742;38.866;2023-12-07T10:24:12;101770.0;;;-10.3;89.5
28456;BME280;15682;56.742;38.866;2023-12-07T10:26:12;101770.0;;;-10.1;89.5
28456;BME280;15682;56.742;38.866;2023-12-07T10:28:12;101770.0;;;-10.2;90.2
28456;BME280;15682;56.742;38.866;2023-12-07T10:30:12;101770.0;;;-10.4;88.7
28456;BME280;15682;56.742;38.866;2023-12-07T10:32:11;101770.0;;;-10.1;90.6
28456;BME280;15682;56.742;38.866;2023-12-07T10:34:11;101770.0;;;-10.1;90.6